Time;durP1;ratioP1;P1;durP2;ratioP2;P2;SDS_P1;SDS_P2;PMS_P1;PMS_P2;Temp;Humidity;BMP_temperature;BMP_pressure;BME280_temperature;BME280_humidity;BME280_pressure;Samples;Min_cycle;Max_cycle;Signal;HPM_P1;HPM_P2
2022/03/27 00:00:30;;;;;;;22.13;12.03;;;;;;;6.68;62.79;97335.53;5106525;28;20019;-75
2022/03/27 00:02:55;;;;;;;25.97;12.10;;;;;;;6.67;62.81;97331.22;5108409;28;20387;-75
2022/03/27 00:05:21;;;;;;;26.20;11.73;;;;;;;6.63;63.22;97332.38;5109248;28;20391;-76
2022/03/27 00:07:47;;;;;;;22.90;13.80;;;;;;;6.65;63.33;97333.13;5108948;28;20067;-76
2022/03/27 00:10:13;;;;;;;28.50;12.93;;;;;;;6.60;63.59;97332.59;5090543;28;20468;-75
2022/03/27 00:12:38;;;;;;;29.57;12.47;;;;;;;6.54;63.87;97338.28;5108299;28;20085;-75
2022/03/27 00:15:05;;;;;;;28.73;13.10;;;;;;;6.40;65.12;97333.16;5100369;28;20027;-76
2022/03/27 00:17:33;;;;;;;28.87;13.60;;;;;;;6.38;64.92;97334.09;5109122;28;20096;-75
2022/03/27 00:20:00;;;;;;;25.93;13.73;;;;;;;6.32;64.90;97331.06;5109757;28;20033;-76
2022/03/27 00:22:27;;;;;;;30.23;12.47;;;;;;;6.27;65.32;97336.63;5109690;28;20118;-75
2022/03/27 00:24:52;;;;;;;28.13;14.07;;;;;;;6.19;65.36;97327.63;5105108;28;20015;-75
2022/03/27 00:27:18;;;;;;;26.43;12.90;;;;;;;6.06;66.19;97332.84;5102401;28;20564;-76
2022/03/27 00:29:44;;;;;;;31.77;12.93;;;;;;;6.05;65.87;97323.34;5110928;28;20030;-75
2022/03/27 00:32:09;;;;;;;24.80;13.27;;;;;;;5.92;66.81;97333.75;5109954;28;20031;-75
2022/03/27 00:34:35;;;;;;;23.60;12.63;;;;;;;6.03;66.81;97333.06;5090499;28;20480;-76
2022/03/27 00:37:01;;;;;;;27.00;13.03;;;;;;;6.07;65.78;97332.75;5107327;28;20031;-75
2022/03/27 00:39:26;;;;;;;21.30;12.77;;;;;;;6.11;65.71;97334.22;5110745;28;20066;-76
2022/03/27 00:41:52;;;;;;;21.73;11.47;;;;;;;6.12;65.70;97342.88;5108194;28;20050;-75
2022/03/27 00:44:18;;;;;;;19.57;11.03;;;;;;;6.07;66.07;97342.34;5117912;27;20031;-75
2022/03/27 00:46:44;;;;;;;30.60;13.23;;;;;;;5.99;66.50;97334.22;5111028;28;20031;-76
2022/03/27 00:49:10;;;;;;;25.03;12.63;;;;;;;5.79;67.71;97336.34;5107580;28;20063;-75
2022/03/27 00:51:35;;;;;;;27.17;12.17;;;;;;;5.80;67.73;97331.97;5111779;28;20396;-75
2022/03/27 00:54:02;;;;;;;33.67;13.90;;;;;;;5.83;68.01;97334.38;5101778;28;20031;-75
2022/03/27 00:56:27;;;;;;;29.90;14.17;;;;;;;5.85;67.16;97330.72;5111806;28;20028;-75
2022/03/27 00:58:53;;;;;;;27.43;11.57;;;;;;;5.90;67.20;97333.88;5097868;28;20054;-75
2022/03/27 01:01:31;;;;;;;25.07;12.43;;;;;;;5.98;67.08;97325.53;5107111;28;20035;-75
2022/03/27 01:04:21;;;;;;;26.57;12.30;;;;;;;5.85;68.32;97322.06;5103245;28;20033;-75
2022/03/27 01:07:17;;;;;;;23.80;12.47;;;;;;;5.75;68.99;97324.44;5105478;28;20038;-75
2022/03/27 01:10:08;;;;;;;25.03;13.57;;;;;;;5.79;68.45;97325.91;5110696;28;20041;-75
2022/03/27 01:13:02;;;;;;;27.43;14.33;;;;;;;5.72;69.08;97324.66;5110396;28;20044;-75
2022/03/27 01:15:45;;;;;;;;;;;;;;;5.71;69.13;97320.38;5118935;27;20027;-75
2022/03/27 01:18:36;;;;;;;31.70;15.47;;;;;;;5.69;69.32;97311.81;5102717;28;19935;-75
2022/03/27 01:21:28;;;;;;;27.90;15.10;;;;;;;5.58;70.35;97311.69;5111547;28;20073;-75
2022/03/27 01:24:18;;;;;;;25.33;13.47;;;;;;;5.60;70.45;97309.78;5107791;28;20527;-75
2022/03/27 01:27:09;;;;;;;26.10;13.57;;;;;;;5.56;70.86;97303.94;5111495;28;20485;-75
2022/03/27 01:30:00;;;;;;;28.73;13.20;;;;;;;5.54;70.77;97300.63;5110450;28;20403;-75
2022/03/27 01:32:53;;;;;;;26.97;13.83;;;;;;;5.50;71.35;97299.16;5102604;28;20449;-75
2022/03/27 01:35:44;;;;;;;23.37;12.77;;;;;;;5.51;71.38;97305.22;5113441;28;20089;-75
2022/03/27 01:38:35;;;;;;;26.00;12.87;;;;;;;5.52;71.42;97301.66;5113113;28;20536;-76
2022/03/27 01:41:26;;;;;;;35.60;14.87;;;;;;;5.54;71.26;97295.41;5111015;28;20123;-76
2022/03/27 01:44:20;;;;;;;30.00;13.10;;;;;;;5.54;71.25;97297.19;5109929;28;20731;-75
2022/03/27 01:47:11;;;;;;;;;;;;;;;5.60;71.07;97289.78;5110549;28;20408;-76
2022/03/27 01:50:04;;;;;;;27.87;12.83;;;;;;;5.57;70.93;97290.00;5108668;28;19934;-75
2022/03/27 01:52:55;;;;;;;25.97;13.20;;;;;;;5.52;71.64;97286.00;5104870;28;20038;-75
2022/03/27 01:55:46;;;;;;;26.33;12.57;;;;;;;5.51;71.78;97289.56;5102937;28;20648;-75
2022/03/27 01:58:42;;;;;;;23.13;12.13;;;;;;;5.51;72.22;97289.56;5108042;28;20610;-75
2022/03/27 02:01:32;;;;;;;36.53;15.83;;;;;;;5.49;71.84;97294.03;5108961;28;20050;-75
2022/03/27 02:04:23;;;;;;;28.50;13.70;;;;;;;5.41;72.38;97290.16;5108887;28;20429;-76
2022/03/27 02:07:14;;;;;;;25.73;12.93;;;;;;;5.41;72.43;97290.16;5108936;28;20116;-75
2022/03/27 02:10:05;;;;;;;25.07;12.53;;;;;;;5.41;72.12;97287.56;5105303;28;20452;-75
2022/03/27 02:12:35;;;;;;;22.17;11.90;;;;;;;5.42;72.19;97297.03;5100002;28;20024;-75
2022/03/27 02:15:26;;;;;;;25.70;13.33;;;;;;;5.25;73.69;97291.28;5109862;28;20042;-75
2022/03/27 02:18:17;;;;;;;27.20;12.00;;;;;;;5.25;73.73;97297.31;5108565;28;20437;-75
2022/03/27 02:21:00;;;;;;;32.53;14.80;;;;;;;5.31;73.34;97293.47;5104920;28;20493;-75
2022/03/27 02:23:51;;;;;;;27.83;13.03;;;;;;;5.15;74.12;97298.84;5112936;27;20869;-75
2022/03/27 02:26:18;;;;;;;27.03;13.10;;;;;;;5.16;73.86;97285.72;5105412;28;20052;-75
2022/03/27 02:28:47;;;;;;;23.70;11.57;;;;;;;5.11;74.40;97297.38;5098131;28;20461;-76
2022/03/27 02:31:38;;;;;;;25.47;12.73;;;;;;;5.05;75.15;97297.78;5100038;28;20984;-75
2022/03/27 02:38:16;;;;;;;25.13;11.87;;;;;;;4.85;77.17;97297.28;5103344;28;20077;-75
2022/03/27 02:41:07;;;;;;;23.67;12.80;;;;;;;4.76;76.95;97297.03;5100869;28;20437;-76
2022/03/27 02:51:32;;;;;;;24.53;11.57;;;;;;;4.76;78.53;97294.41;5095893;28;20133;-75
2022/03/27 02:54:24;;;;;;;20.93;11.37;;;;;;;4.65;78.59;97292.50;5100846;28;20973;-75
2022/03/27 02:57:15;;;;;;;23.47;11.37;;;;;;;4.67;78.47;97290.63;5106467;28;20482;-75
2022/03/27 03:00:09;;;;;;;28.27;13.03;;;;;;;4.63;79.30;97299.59;5097931;28;20921;-75
2022/03/27 03:02:59;;;;;;;32.63;13.00;;;;;;;4.62;79.32;97290.06;5103073;28;20502;-75
2022/03/27 03:05:51;;;;;;;23.97;12.77;;;;;;;4.62;79.92;97292.69;5101720;28;20475;-75
2022/03/27 03:08:42;;;;;;;22.40;11.03;;;;;;;4.61;79.46;97288.41;5105445;28;20494;-75
2022/03/27 03:11:33;;;;;;;24.17;11.43;;;;;;;4.66;79.38;97296.75;5101067;28;20786;-77
2022/03/27 03:14:24;;;;;;;18.97;11.50;;;;;;;4.60;79.73;97299.78;5109363;28;20468;-75
2022/03/27 03:17:15;;;;;;;28.23;13.20;;;;;;;4.54;80.13;97305.38;5099429;27;21072;-75
2022/03/27 03:19:47;;;;;;;29.57;12.87;;;;;;;4.50;80.81;97302.13;5102044;28;20455;-76
2022/03/27 03:22:13;;;;;;;26.20;13.27;;;;;;;4.54;80.38;97295.78;5107431;28;20982;-76
2022/03/27 03:24:41;;;;;;;22.13;12.33;;;;;;;4.49;81.00;97298.69;5108235;28;20062;-76
2022/03/27 03:27:31;;;;;;;29.60;13.03;;;;;;;4.47;81.75;97297.94;5108688;28;20541;-75
2022/03/27 03:30:23;;;;;;;26.53;11.90;;;;;;;4.47;81.57;97294.50;5107598;28;20497;-75
2022/03/27 03:32:53;;;;;;;22.90;12.43;;;;;;;4.52;81.97;97294.19;5108347;28;20469;-75
2022/03/27 03:35:44;;;;;;;25.10;11.87;;;;;;;4.52;81.39;97288.97;5101704;28;20488;-75
2022/03/27 03:38:35;;;;;;;25.30;13.30;;;;;;;4.45;81.74;97289.34;5110443;28;20421;-75
2022/03/27 03:41:26;;;;;;;21.87;11.87;;;;;;;4.43;81.86;97300.81;5109645;28;20449;-75
2022/03/27 03:44:17;;;;;;;25.17;12.50;;;;;;;4.45;81.84;97298.94;5107450;28;21016;-75
2022/03/27 03:47:09;;;;;;;29.77;14.83;;;;;;;4.38;82.19;97298.50;5109036;28;20513;-76
2022/03/27 03:50:00;;;;;;;30.00;13.83;;;;;;;4.37;82.26;97304.63;5109033;28;20424;-75
2022/03/27 03:52:27;;;;;;;27.57;12.37;;;;;;;4.32;82.58;97293.66;5107592;28;21148;-75
2022/03/27 03:54:53;;;;;;;24.30;12.47;;;;;;;4.35;82.85;97303.06;5113253;28;20540;-75
2022/03/27 03:57:19;;;;;;;23.17;12.67;;;;;;;4.36;82.22;97305.56;5106724;28;20505;-75
2022/03/27 03:59:45;;;;;;;28.80;13.47;;;;;;;4.32;82.73;97305.84;5113630;28;20417;-75
2022/03/27 04:02:36;;;;;;;30.27;14.17;;;;;;;4.31;82.58;97302.41;5107104;28;20066;-75
2022/03/27 04:05:04;;;;;;;26.67;14.80;;;;;;;4.31;82.60;97306.78;5112878;28;20457;-75
2022/03/27 04:07:29;;;;;;;27.37;14.10;;;;;;;4.28;83.21;97305.19;5111694;28;20434;-75
2022/03/27 04:09:56;;;;;;;24.27;13.47;;;;;;;4.20;83.69;97302.25;5113090;28;21034;-75
2022/03/27 04:12:21;;;;;;;23.50;12.40;;;;;;;4.18;84.03;97302.31;5111435;28;20465;-75
2022/03/27 04:15:12;;;;;;;26.70;12.97;;;;;;;4.17;84.18;97295.44;5110282;28;20069;-75
2022/03/27 04:18:03;;;;;;;26.77;12.70;;;;;;;4.12;85.16;97296.63;5111978;28;20499;-75
2022/03/27 04:20:54;;;;;;;22.70;12.37;;;;;;;4.07;85.01;97298.69;5106906;28;20572;-75
2022/03/27 04:23:45;;;;;;;22.73;12.30;;;;;;;4.04;86.56;97291.06;5110775;27;20508;-75
2022/03/27 04:26:39;;;;;;;23.00;12.03;;;;;;;3.93;87.09;97295.16;5114592;27;20498;-75
2022/03/27 04:29:29;;;;;;;19.57;9.23;;;;;;;3.90;86.13;97295.34;5106188;28;20442;-75
2022/03/27 04:32:20;;;;;;;27.57;13.47;;;;;;;3.97;86.45;97299.25;5112645;28;20420;-76
2022/03/27 04:35:11;;;;;;;30.07;13.97;;;;;;;3.93;86.96;97297.78;5127764;27;20568;-75
2022/03/27 04:37:43;;;;;;;28.10;11.80;;;;;;;3.86;87.97;97301.66;5118166;27;20483;-75
2022/03/27 04:40:34;;;;;;;25.10;14.60;;;;;;;3.77;87.90;97297.84;5112537;28;20501;-75
2022/03/27 04:43:25;;;;;;;29.97;14.33;;;;;;;3.73;87.78;97295.53;5111227;28;20449;-74
2022/03/27 04:46:17;;;;;;;26.33;13.90;;;;;;;3.74;88.07;97305.00;5104350;28;20472;-75
2022/03/27 04:49:08;;;;;;;23.13;12.77;;;;;;;3.67;89.14;97306.28;5107604;28;20409;-75
2022/03/27 04:51:59;;;;;;;24.00;13.20;;;;;;;3.60;89.11;97300.59;5106846;28;20417;-75
2022/03/27 04:54:26;;;;;;;30.60;13.97;;;;;;;3.58;89.43;97306.81;5124485;27;21122;-75
2022/03/27 04:56:56;;;;;;;24.83;13.67;;;;;;;3.56;90.24;97312.13;5114033;28;21239;-75
2022/03/27 04:59:48;;;;;;;25.40;12.90;;;;;;;3.61;90.68;97306.63;5105392;28;20546;-75
2022/03/27 05:02:17;;;;;;;24.57;13.40;;;;;;;3.60;91.38;97304.97;5109984;28;20469;-75
2022/03/27 05:05:11;;;;;;;25.77;12.87;;;;;;;3.55;91.44;97305.22;5107078;28;21013;-75
2022/03/27 05:08:02;;;;;;;23.77;13.55;;;;;;;3.52;91.39;97308.88;5106073;28;20417;-75
2022/03/27 05:10:54;;;;;;;22.00;12.63;;;;;;;3.47;92.02;97310.03;5102220;28;20034;-76
2022/03/27 05:13:44;;;;;;;22.60;13.23;;;;;;;3.48;91.72;97320.34;5103939;28;20444;-75
2022/03/27 05:16:35;;;;;;;25.53;14.37;;;;;;;3.36;93.85;97315.88;5110322;28;20534;-77
2022/03/27 05:19:05;;;;;;;27.90;12.83;;;;;;;3.35;92.81;97314.19;5110031;28;20536;-75
2022/03/27 05:21:55;;;;;;;25.33;12.73;;;;;;;3.46;92.90;97311.81;5111905;28;20548;-76
2022/03/27 05:24:47;;;;;;;23.47;13.00;;;;;;;3.51;92.62;97306.34;5104058;28;21240;-75
2022/03/27 05:27:19;;;;;;;22.77;13.00;;;;;;;3.64;92.12;97315.09;5111163;28;20426;-75
2022/03/27 05:30:10;;;;;;;30.80;12.83;;;;;;;3.68;91.33;97307.94;5109751;28;20433;-75
2022/03/27 05:33:03;;;;;;;23.27;13.13;;;;;;;3.79;91.08;97305.56;5109799;28;20420;-75
2022/03/27 05:35:53;;;;;;;29.47;16.57;;;;;;;3.97;90.26;97304.47;5110200;28;20525;-75
2022/03/27 05:38:43;;;;;;;27.30;13.83;;;;;;;4.13;88.04;97309.59;5104679;28;20428;-75
2022/03/27 05:41:34;;;;;;;27.27;14.07;;;;;;;4.29;87.64;97314.66;5111859;28;20412;-75
2022/03/27 05:44:25;;;;;;;24.90;13.50;;;;;;;4.53;85.64;97314.09;5111466;28;20980;-75
2022/03/27 05:47:16;;;;;;;28.93;13.77;;;;;;;4.52;85.76;97313.25;5104846;28;20436;-76
2022/03/27 05:50:15;;;;;;;28.03;14.80;;;;;;;4.76;83.64;97315.25;5113530;28;20787;-76
2022/03/27 05:53:06;;;;;;;38.10;18.10;;;;;;;4.93;81.96;97310.66;5107647;28;20421;-76
2022/03/27 05:55:59;;;;;;;42.20;22.83;;;;;;;5.18;80.84;97319.50;5107910;28;20917;-76
2022/03/27 05:58:49;;;;;;;35.73;15.80;;;;;;;5.34;79.54;97317.59;5104072;28;20485;-75
2022/03/27 06:01:40;;;;;;;25.07;15.03;;;;;;;5.69;77.16;97314.41;5111870;28;20449;-76
2022/03/27 06:04:31;;;;;;;30.07;15.17;;;;;;;5.83;77.48;97314.31;5103398;28;21085;-76
2022/03/27 06:07:22;;;;;;;27.83;14.33;;;;;;;6.07;75.52;97313.63;5110789;28;20456;-76
2022/03/27 06:10:15;;;;;;;29.70;13.70;;;;;;;6.31;74.12;97321.56;5110509;28;20420;-76
2022/03/27 06:13:05;;;;;;;29.73;16.20;;;;;;;6.29;74.61;97318.22;5106381;28;20422;-76
2022/03/27 06:15:56;;;;;;;27.73;13.87;;;;;;;6.83;71.01;97312.66;5106737;28;20068;-76
2022/03/27 06:18:22;;;;;;;25.13;14.13;;;;;;;7.09;68.63;97311.63;5108804;28;20449;-76
2022/03/27 06:20:47;;;;;;;27.13;14.37;;;;;;;7.08;70.04;97307.34;5110061;28;20684;-75
2022/03/27 06:23:13;;;;;;;20.40;12.77;;;;;;;7.32;68.90;97307.34;5092146;28;20096;-76
2022/03/27 06:25:39;;;;;;;24.17;13.13;;;;;;;7.52;66.96;97310.28;5109135;28;20114;-76
2022/03/27 06:28:05;;;;;;;21.03;13.17;;;;;;;7.88;65.17;97311.06;5109432;27;20446;-76
2022/03/27 06:30:32;;;;;;;24.17;13.10;;;;;;;7.91;65.35;97316.09;5110021;27;20031;-76
2022/03/27 06:33:02;;;;;;;28.57;14.27;;;;;;;7.99;64.52;97314.56;5110377;27;20396;-76
2022/03/27 06:35:29;;;;;;;26.60;13.10;;;;;;;8.01;65.82;97319.66;5111096;28;20028;-75
2022/03/27 06:37:56;;;;;;;26.30;13.43;;;;;;;8.47;63.56;97318.78;5114606;28;20359;-76
2022/03/27 06:40:22;;;;;;;28.03;13.47;;;;;;;9.19;61.74;97315.72;5126248;27;20054;-76
2022/03/27 06:42:48;;;;;;;24.17;13.00;;;;;;;9.32;59.89;97315.53;5117468;28;20035;-76
2022/03/27 06:45:16;;;;;;;20.07;13.17;;;;;;;8.94;61.70;97314.22;5106051;28;20117;-76
2022/03/27 06:47:44;;;;;;;25.03;15.10;;;;;;;9.38;59.24;97310.63;5111328;28;20035;-75
2022/03/27 06:50:12;;;;;;;26.13;13.70;;;;;;;9.51;58.86;97310.44;5110247;28;20031;-76
2022/03/27 06:52:38;;;;;;;21.40;13.23;;;;;;;9.22;58.59;97323.31;5099805;28;20027;-76
2022/03/27 06:55:05;;;;;;;23.67;13.10;;;;;;;9.70;57.41;97315.03;5089668;28;20127;-76
2022/03/27 06:57:32;;;;;;;25.77;12.90;;;;;;;9.99;57.64;97309.94;5108046;27;20097;-76
2022/03/27 07:05:26;;;;;;;28.43;17.70;;;;;;;11.48;52.60;97304.91;5106578;28;20024;-75
2022/03/27 07:07:52;;;;;;;30.23;17.00;;;;;;;12.13;51.37;97302.50;5095114;28;20744;-77
2022/03/27 07:10:18;;;;;;;28.20;16.63;;;;;;;12.59;50.17;97299.03;5113506;28;20034;-77
2022/03/27 07:12:45;;;;;;;20.00;12.63;;;;;;;11.78;52.61;97303.94;5110966;28;20020;-77
2022/03/27 07:15:11;;;;;;;21.37;13.60;;;;;;;12.52;50.71;97308.50;5095789;28;20361;-77
2022/03/27 07:17:51;;;;;;;21.97;13.63;;;;;;;11.75;52.17;97307.69;5112918;28;20024;-76
2022/03/27 07:20:30;;;;;;;22.67;12.70;;;;;;;12.59;50.96;97311.38;5095399;28;20047;-77
2022/03/27 07:23:03;;;;;;;22.60;12.20;;;;;;;12.56;49.85;97301.13;5113311;28;20038;-77
2022/03/27 07:25:32;;;;;;;23.67;12.77;;;;;;;11.83;53.28;97314.03;5113408;28;20058;-77
2022/03/27 07:27:58;;;;;;;23.60;11.97;;;;;;;11.94;52.26;97311.31;5107814;28;20043;-78
2022/03/27 07:30:24;;;;;;;18.97;11.60;;;;;;;11.79;52.62;97313.50;5107150;28;20115;-78
2022/03/27 07:32:52;;;;;;;18.00;11.67;;;;;;;11.53;53.14;97314.06;5111761;28;20035;-78
2022/03/27 07:35:18;;;;;;;23.83;12.47;;;;;;;11.67;54.75;97314.59;5112189;28;20035;-77
2022/03/27 07:37:45;;;;;;;18.27;11.07;;;;;;;11.68;52.81;97316.28;5099772;28;20024;-78
2022/03/27 07:40:13;;;;;;;18.87;11.53;;;;;;;12.61;51.89;97319.97;5095352;28;20081;-77
2022/03/27 07:42:40;;;;;;;20.43;12.07;;;;;;;12.38;51.02;97309.81;5093668;28;20117;-78
2022/03/27 07:45:09;;;;;;;17.87;10.90;;;;;;;13.42;48.85;97309.56;5111755;28;20027;-78
2022/03/27 07:47:35;;;;;;;22.10;12.83;;;;;;;13.55;48.40;97304.72;5113511;28;20032;-78
2022/03/27 07:50:02;;;;;;;22.30;11.93;;;;;;;13.94;47.74;97307.00;5112506;28;20062;-78
2022/03/27 07:52:28;;;;;;;23.87;13.10;;;;;;;13.66;48.18;97314.22;5112805;28;20062;-78
2022/03/27 07:54:54;;;;;;;20.47;11.60;;;;;;;14.14;47.02;97310.28;5100216;28;20028;-78
2022/03/27 07:57:20;;;;;;;27.10;16.63;;;;;;;13.62;48.42;97315.53;5108397;28;20027;-78
2022/03/27 07:59:47;;;;;;;20.73;12.30;;;;;;;13.94;46.84;97311.47;5112007;28;20388;-78
2022/03/27 08:02:16;;;;;;;17.43;11.50;;;;;;;13.87;47.24;97314.72;5093566;28;20019;-78
2022/03/27 08:04:42;;;;;;;21.83;12.77;;;;;;;14.11;46.67;97314.06;5112698;28;20481;-78
2022/03/27 08:07:08;;;;;;;18.90;11.07;;;;;;;13.44;47.86;97313.69;5113206;28;20038;-78
2022/03/27 08:09:33;;;;;;;17.90;11.03;;;;;;;14.48;46.97;97317.44;5113445;28;20416;-78
2022/03/27 08:11:59;;;;;;;21.83;11.60;;;;;;;15.04;44.85;97310.78;5093922;28;20592;-78
2022/03/27 08:14:28;;;;;;;19.97;11.97;;;;;;;14.50;45.78;97310.19;5110947;28;20111;-78
2022/03/27 08:16:54;;;;;;;21.27;11.03;;;;;;;15.21;44.31;97312.47;5112467;28;20047;-78
2022/03/27 08:19:20;;;;;;;18.07;10.83;;;;;;;15.12;44.45;97313.44;5111945;28;20024;-79
2022/03/27 08:21:46;;;;;;;20.57;12.67;;;;;;;14.75;44.79;97314.63;5100753;28;20118;-78
2022/03/27 08:24:13;;;;;;;16.47;11.57;;;;;;;15.39;43.78;97312.38;5112546;28;20019;-78
2022/03/27 08:26:57;;;;;;;21.13;12.10;;;;;;;15.91;43.06;97312.09;5112983;28;20049;-79
2022/03/27 08:29:28;;;;;;;19.73;11.87;;;;;;;16.63;41.65;97306.84;5106478;28;20043;-77
2022/03/27 08:31:54;;;;;;;18.30;12.23;;;;;;;16.54;41.28;97309.69;5094351;28;20027;-77
2022/03/27 08:34:21;;;;;;;26.33;12.93;;;;;;;16.99;40.03;97302.91;5110491;28;20034;-77
2022/03/27 08:36:47;;;;;;;19.20;12.57;;;;;;;16.50;40.89;97311.88;5111186;28;20104;-77
2022/03/27 08:39:13;;;;;;;20.23;12.60;;;;;;;17.17;38.65;97304.31;5111868;28;20523;-77
2022/03/27 08:41:43;;;;;;;22.00;12.43;;;;;;;18.27;37.34;97297.84;5125256;27;20110;-77
2022/03/27 08:44:11;;;;;;;23.97;12.43;;;;;;;17.74;37.71;97294.28;5122966;27;20030;-76
2022/03/27 08:46:36;;;;;;;21.30;12.13;;;;;;;18.20;36.48;97294.25;5088281;28;20754;-77
2022/03/27 08:49:10;;;;;;;24.70;13.73;;;;;;;17.31;37.50;97305.41;5114723;28;20031;-77
2022/03/27 08:51:46;;;;;;;20.75;12.32;;;;;;;18.23;35.70;97293.91;5115020;28;20035;-77
2022/03/27 08:54:23;;;;;;;21.08;11.75;;;;;;;17.35;37.10;97292.59;5114404;28;20117;-77
2022/03/27 08:57:09;;;;;;;20.80;12.00;;;;;;;17.86;34.78;97287.59;5106355;28;20027;-77
2022/03/27 08:59:37;;;;;;;18.20;10.35;;;;;;;19.00;34.20;97283.72;5106450;28;20035;-77
2022/03/27 09:02:03;;;;;;;20.83;11.50;;;;;;;18.03;35.30;97291.75;5116095;28;20066;-77
2022/03/27 09:04:31;;;;;;;21.52;11.63;;;;;;;17.56;35.62;97298.09;5114435;28;20446;-77
2022/03/27 09:06:57;;;;;;;20.90;12.02;;;;;;;17.67;34.05;97295.03;5113745;28;20060;-77
2022/03/27 09:09:22;;;;;;;18.67;11.57;;;;;;;18.52;33.99;97293.13;5115604;28;20074;-76
2022/03/27 09:11:50;;;;;;;17.63;11.55;;;;;;;18.60;33.27;97293.00;5113705;28;20024;-77
2022/03/27 09:14:17;;;;;;;17.77;10.77;;;;;;;19.38;32.95;97294.19;5088180;28;20039;-77
2022/03/27 09:17:01;;;;;;;18.92;11.05;;;;;;;19.21;31.97;97290.13;5114419;28;20516;-77
2022/03/27 09:19:39;;;;;;;16.70;11.90;;;;;;;19.35;30.61;97299.09;5114960;28;20023;-77
2022/03/27 09:22:13;;;;;;;19.23;11.20;;;;;;;19.08;30.84;97296.16;5096378;28;20409;-77
2022/03/27 09:24:39;;;;;;;17.45;11.27;;;;;;;19.29;30.52;97298.03;5113646;28;20038;-77
2022/03/27 09:27:05;;;;;;;20.77;10.98;;;;;;;19.19;31.18;97298.31;5114767;28;20028;-77
2022/03/27 09:30:10;;;;;;;22.08;12.48;;;;;;;19.89;29.54;97294.13;5112835;28;20036;-77
2022/03/27 09:32:38;;;;;;;25.05;13.15;;;;;;;19.14;30.35;97292.69;5113429;28;20035;-77
2022/03/27 09:35:16;;;;;;;19.30;12.88;;;;;;;18.50;31.08;97295.13;5114230;28;20050;-77
2022/03/27 09:37:46;;;;;;;22.08;12.38;;;;;;;19.15;30.24;97293.53;5106708;28;20031;-77
2022/03/27 09:40:14;;;;;;;17.90;12.38;;;;;;;18.33;31.02;97294.47;5107598;28;20024;-77
2022/03/27 09:42:42;;;;;;;23.05;13.82;;;;;;;18.70;30.51;97279.41;5113020;28;20035;-77
2022/03/27 09:45:18;;;;;;;21.63;11.93;;;;;;;19.74;29.44;97288.03;5113601;28;20039;-77
2022/03/27 09:47:49;;;;;;;18.33;11.35;;;;;;;19.28;30.33;97289.19;5106272;28;20787;-77
2022/03/27 09:50:32;;;;;;;22.95;12.45;;;;;;;18.78;30.42;97292.69;5107323;28;20740;-77
2022/03/27 09:53:36;;;;;;;22.27;12.85;;;;;;;19.43;30.44;97278.47;5108907;28;20116;-76
2022/03/27 09:56:03;;;;;;;20.05;11.85;;;;;;;18.65;31.05;97287.16;5032210;28;20039;-77
2022/03/27 09:58:42;;;;;;;18.13;11.25;;;;;;;20.10;29.42;97287.13;5033882;28;20040;-77
2022/03/27 10:01:08;;;;;;;20.17;12.75;;;;;;;21.20;27.80;97280.97;5070293;28;20050;-77
2022/03/27 10:03:35;;;;;;;22.80;12.80;;;;;;;20.53;28.70;97282.53;5110338;27;20069;-77
2022/03/27 10:06:02;;;;;;;20.77;12.10;;;;;;;19.01;30.65;97280.06;5103058;28;20031;-77
2022/03/27 10:08:28;;;;;;;18.23;12.15;;;;;;;20.28;29.65;97283.94;5109941;28;20133;-77
2022/03/27 10:10:58;;;;;;;18.60;12.38;;;;;;;19.36;30.02;97280.25;5090331;28;20067;-77
2022/03/27 10:13:29;;;;;;;21.67;12.73;;;;;;;19.94;29.33;97273.00;5107921;28;20039;-77
2022/03/27 10:15:57;;;;;;;19.13;11.60;;;;;;;19.82;30.11;97273.72;5089445;28;20032;-77
2022/03/27 10:18:24;;;;;;;22.88;13.18;;;;;;;20.00;30.45;97269.56;5108963;28;20035;-77
2022/03/27 10:20:58;;;;;;;20.10;11.68;;;;;;;19.53;30.32;97270.97;5104752;28;20043;-77
2022/03/27 10:23:26;;;;;;;19.80;12.32;;;;;;;18.86;30.53;97273.09;5096755;28;20024;-77
2022/03/27 10:25:55;;;;;;;18.85;11.38;;;;;;;19.41;29.05;97275.16;5111075;28;20016;-77
2022/03/27 10:28:22;;;;;;;20.65;13.38;;;;;;;17.58;31.19;97271.31;5111920;28;20081;-77
2022/03/27 10:30:52;;;;;;;20.15;11.60;;;;;;;19.86;29.24;97265.16;5103749;28;20019;-77
2022/03/27 10:33:20;;;;;;;21.85;13.30;;;;;;;20.14;28.99;97259.81;5111758;28;20629;-77
2022/03/27 10:35:48;;;;;;;19.92;11.38;;;;;;;20.84;28.80;97263.34;5104165;28;20027;-77
2022/03/27 10:38:32;;;;;;;21.75;11.88;;;;;;;20.88;28.39;97253.91;5110254;28;20676;-77
2022/03/27 10:41:20;;;;;;;19.13;11.32;;;;;;;20.40;28.47;97261.84;5107463;28;20145;-77
2022/03/27 10:44:11;;;;;;;18.17;11.48;;;;;;;19.49;28.90;97252.88;5107199;27;20038;-77
2022/03/27 10:46:37;;;;;;;21.15;12.52;;;;;;;20.57;28.32;97251.69;5110380;27;20039;-77
2022/03/27 10:49:16;;;;;;;23.75;12.38;;;;;;;20.74;28.67;97251.38;5109219;28;20023;-76
2022/03/27 10:51:47;;;;;;;21.63;12.32;;;;;;;20.01;27.62;97247.19;5101855;28;20409;-77
2022/03/27 10:54:20;;;;;;;22.60;13.00;;;;;;;20.09;27.70;97248.09;5109139;28;20092;-77
2022/03/27 10:56:48;;;;;;;23.38;12.52;;;;;;;19.75;28.83;97245.16;5101769;28;20023;-77
2022/03/27 10:59:19;;;;;;;21.83;11.63;;;;;;;20.49;26.73;97244.66;5110692;28;20032;-77
2022/03/27 11:01:47;;;;;;;20.92;11.30;;;;;;;20.67;26.24;97240.66;5102314;28;20035;-77
2022/03/27 11:04:35;;;;;;;21.73;11.32;;;;;;;21.36;25.46;97234.31;5107875;28;20028;-77
2022/03/27 11:07:16;;;;;;;18.45;10.75;;;;;;;21.60;25.38;97239.09;5105182;28;20028;-76
2022/03/27 11:09:47;;;;;;;17.85;10.07;;;;;;;20.53;24.52;97241.63;5104423;28;20027;-77
2022/03/27 11:12:25;;;;;;;17.50;10.77;;;;;;;20.34;24.68;97240.44;5105645;28;20114;-77
2022/03/27 11:14:57;;;;;;;21.80;11.18;;;;;;;20.34;25.89;97235.91;5108788;28;20075;-77
2022/03/27 11:17:29;;;;;;;20.10;11.35;;;;;;;20.22;26.72;97232.97;5106204;28;20047;-76
2022/03/27 11:19:55;;;;;;;17.20;10.27;;;;;;;20.65;25.87;97226.66;5119378;27;20576;-77
2022/03/27 11:22:43;;;;;;;19.50;10.70;;;;;;;21.36;24.88;97224.47;5097873;28;20119;-77
2022/03/27 11:25:37;;;;;;;18.20;11.13;;;;;;;20.89;25.29;97231.50;5098094;28;20115;-77
2022/03/27 11:28:03;;;;;;;19.45;11.68;;;;;;;20.71;26.02;97218.66;5094112;28;20028;-78
2022/03/27 11:30:30;;;;;;;20.73;12.35;;;;;;;21.16;25.71;97218.22;5091087;28;20031;-76
2022/03/27 11:33:20;;;;;;;19.15;11.82;;;;;;;20.80;25.61;97226.53;5109515;28;20038;-78
2022/03/27 11:36:01;;;;;;;22.70;13.10;;;;;;;20.85;26.44;97221.38;5101011;28;20066;-77
2022/03/27 11:38:50;;;;;;;22.83;12.70;;;;;;;20.99;25.91;97223.06;5106547;28;20040;-77
2022/03/27 11:41:30;;;;;;;18.58;11.15;;;;;;;21.14;25.13;97206.88;5095596;28;20066;-77
2022/03/27 11:44:16;;;;;;;15.82;10.52;;;;;;;21.27;24.74;97206.91;5101683;28;20055;-77
2022/03/27 11:46:44;;;;;;;19.35;10.82;;;;;;;20.89;25.71;97207.44;5108391;28;20020;-77
2022/03/27 11:49:11;;;;;;;20.30;11.25;;;;;;;21.44;24.81;97199.34;5109773;28;20012;-77
2022/03/27 11:51:37;;;;;;;19.90;11.05;;;;;;;21.07;25.63;97203.38;5091732;28;20491;-77
2022/03/27 11:54:15;;;;;;;19.05;11.43;;;;;;;21.39;24.62;97199.97;5103916;28;20032;-77
2022/03/27 11:57:01;;;;;;;19.30;11.18;;;;;;;21.51;25.19;97196.69;5105965;28;20035;-77
2022/03/27 11:59:27;;;;;;;17.40;12.15;;;;;;;20.78;26.27;97204.50;5110593;28;20092;-77
2022/03/27 12:02:01;;;;;;;23.52;12.15;;;;;;;20.93;26.20;97192.63;5109603;28;20051;-77
2022/03/27 12:04:28;;;;;;;19.27;11.88;;;;;;;21.42;25.95;97180.81;5105895;28;20036;-77
2022/03/27 12:06:58;;;;;;;22.65;12.20;;;;;;;21.24;25.86;97188.59;5105883;28;20476;-78
2022/03/27 12:09:30;;;;;;;16.83;11.40;;;;;;;22.22;25.62;97180.78;5104241;28;20032;-77
2022/03/27 12:12:11;;;;;;;19.90;12.05;;;;;;;21.65;25.48;97180.41;5091324;28;20031;-77
2022/03/27 12:14:54;;;;;;;15.93;10.90;;;;;;;22.08;24.74;97179.16;5103912;28;20031;-77
2022/03/27 12:17:22;;;;;;;19.33;10.43;;;;;;;22.05;24.59;97176.88;5102307;28;20819;-77
2022/03/27 12:20:08;;;;;;;18.90;11.77;;;;;;;21.52;25.44;97174.22;5100779;28;20050;-77
2022/03/27 12:22:41;;;;;;;18.33;11.52;;;;;;;21.05;26.46;97176.00;5112056;28;20024;-77